KGXY/GXY METAR and TAF weather

Enter ICAO airport designator
Station Type Date Time Source
KGXY METAR 2019/07/17 18:56 UTC NOAA

KGXY 171856Z AUTO 11009KT 10SM CLR 33/14 A2995 RMK AO2 SLP085 T03280139


Station Type Date Time Source
KGXY Decoded METAR 2019/07/17 18:56 UTC NOAA

Greeley, Greeley-Weld County Airport, CO, United States (KGXY) 40-26N 104-38W
Jul 17, 2019 - 02:56 PM EDT / 2019.07.17 1856 UTC
Wind: from the ESE (110 degrees) at 10 MPH (9 KT):0
Visibility: 10 mile(s):0
Sky conditions: clear
Temperature: 91.0 F (32.8 C)
Dew Point: 57.0 F (13.9 C)
Relative Humidity: 31%
Pressure (altimeter): 29.95 in. Hg (1014 hPa)
ob: KGXY 171856Z AUTO 11009KT 10SM CLR 33/14 A2995 RMK AO2 SLP085 T03280139
cycle: 19

Station Type Date Time Source
KGXY TAF UTC NOAA

Error!

Example: see airport list